createdAt,value
2018-09-09T00:01:45.703Z,97981.67
2018-09-09T00:04:15.342Z,97984.69
2018-09-09T00:11:52.653Z,97983.11
2018-09-09T00:14:26.574Z,97984.86
2018-09-09T00:16:54.732Z,97988.86
2018-09-09T00:22:00.984Z,97987.84
2018-09-09T00:24:31.163Z,97988.84
2018-09-09T00:29:32.889Z,97997.00
2018-09-09T00:34:37.092Z,97991.45
2018-09-09T00:37:05.012Z,97992.23
2018-09-09T00:39:33.328Z,97991.84
2018-09-09T00:42:05.016Z,97987.98
2018-09-09T00:47:04.361Z,97986.16
2018-09-09T01:02:19.351Z,97990.58
2018-09-09T01:04:48.636Z,97993.12
2018-09-09T01:09:51.790Z,97996.73
2018-09-09T01:14:53.304Z,97989.63
2018-09-09T01:17:25.435Z,97993.12
2018-09-09T01:19:54.731Z,97992.10
2018-09-09T01:22:24.545Z,97992.77
2018-09-09T01:24:54.679Z,97995.52
2018-09-09T01:29:58.738Z,97993.28
2018-09-09T01:37:34.238Z,97989.97
2018-09-09T01:40:03.347Z,97993.52
2018-09-09T01:45:10.196Z,97986.87
2018-09-09T01:50:20.667Z,97989.02
2018-09-09T01:52:52.995Z,97984.81
2018-09-09T01:55:22.155Z,97993.83
2018-09-09T01:57:50.990Z,97983.02
2018-09-09T02:00:20.039Z,97984.50
2018-09-09T02:02:49.919Z,97989.98
2018-09-09T02:07:51.362Z,97992.50
2018-09-09T02:10:21.320Z,97991.69
2018-09-09T02:12:50.086Z,97988.80
2018-09-09T02:17:53.791Z,97988.02
2018-09-09T02:28:07.295Z,97994.35
2018-09-09T02:35:42.418Z,97996.22
2018-09-09T02:43:20.062Z,97989.92
2018-09-09T02:45:48.823Z,97985.05
2018-09-09T02:50:53.231Z,97982.98
2018-09-09T02:55:56.223Z,97978.64
2018-09-09T03:03:32.154Z,97973.22
2018-09-09T03:13:39.216Z,97975.88
2018-09-09T03:16:12.504Z,97975.63
2018-09-09T03:18:44.710Z,97983.56
2018-09-09T03:21:14.105Z,97984.37
2018-09-09T03:23:46.134Z,97981.16
2018-09-09T03:28:46.651Z,97981.97
2018-09-09T03:31:17.038Z,97979.69
2018-09-09T03:33:43.953Z,97977.00
2018-09-09T03:38:47.053Z,97983.84
2018-09-09T03:41:14.885Z,97978.94
2018-09-09T03:43:43.241Z,97981.30
2018-09-09T03:46:16.260Z,97976.51
2018-09-09T03:48:45.176Z,97976.63
2018-09-09T03:51:14.942Z,97975.27
2018-09-09T03:56:20.364Z,97973.30
2018-09-09T03:58:51.752Z,97973.91
2018-09-09T04:01:21.754Z,97969.17
2018-09-09T04:03:49.985Z,97974.86
2018-09-09T04:06:18.259Z,97973.90
2018-09-09T04:11:20.069Z,97977.69
2018-09-09T04:16:23.493Z,97981.33
2018-09-09T04:18:54.144Z,97981.97
2018-09-09T04:21:23.014Z,97992.61
2018-09-09T04:23:52.517Z,97989.66
2018-09-09T04:26:21.445Z,97993.53
2018-09-09T04:28:51.517Z,97995.42
2018-09-09T04:31:19.829Z,97992.83
2018-09-09T04:33:48.559Z,97998.94
2018-09-09T04:36:18.827Z,97995.80
2018-09-09T04:38:46.712Z,97998.94
2018-09-09T04:41:18.607Z,97997.52
2018-09-09T04:43:45.685Z,97997.90
2018-09-09T04:46:13.884Z,98001.92
2018-09-09T04:48:41.191Z,98002.88
2018-09-09T04:51:11.359Z,98000.03
2018-09-09T04:53:38.653Z,98004.12
2018-09-09T04:56:06.828Z,98004.72
2018-09-09T04:58:34.692Z,98003.13
2018-09-09T05:01:01.781Z,98004.11
2018-09-09T05:03:28.909Z,98009.39
2018-09-09T05:05:56.327Z,98007.52
2018-09-09T05:08:23.380Z,98010.58
2018-09-09T05:10:50.542Z,98010.52
2018-09-09T05:13:17.671Z,98014.27
2018-09-09T05:15:45.851Z,98016.50
2018-09-09T05:18:13.092Z,98021.77
2018-09-09T05:20:40.227Z,98019.01
2018-09-09T05:23:08.093Z,98017.49
2018-09-09T05:25:35.017Z,98017.34
2018-09-09T05:28:02.064Z,98011.67
2018-09-09T05:30:30.252Z,98014.33
2018-09-09T05:32:57.170Z,98017.79
2018-09-09T05:35:24.600Z,98022.54
2018-09-09T05:37:51.913Z,98021.80
2018-09-09T05:40:18.742Z,98022.97
2018-09-09T05:42:46.709Z,98023.20
2018-09-09T05:50:20.865Z,98029.18
2018-09-09T05:52:51.606Z,98028.56
2018-09-09T05:55:22.208Z,98032.20
2018-09-09T06:02:54.753Z,98029.98
2018-09-09T06:05:22.594Z,98032.13
2018-09-09T06:07:52.870Z,98034.26
2018-09-09T06:10:21.238Z,98030.68
2018-09-09T06:12:49.652Z,98031.38
2018-09-09T06:17:48.328Z,98036.18
2018-09-09T06:20:14.956Z,98034.37
2018-09-09T06:22:43.135Z,98033.13
2018-09-09T06:25:12.775Z,98038.22
2018-09-09T06:27:41.783Z,98033.09
2018-09-09T06:30:15.643Z,98035.98
2018-09-09T06:35:24.182Z,98032.70
2018-09-09T06:37:54.221Z,98028.11
2018-09-09T06:40:25.162Z,98035.34
2018-09-09T06:42:53.836Z,98027.72
2018-09-09T06:45:23.965Z,98031.59
2018-09-09T06:47:50.562Z,98031.59
2018-09-09T06:50:19.241Z,98026.33
2018-09-09T06:52:47.486Z,98035.92
2018-09-09T06:55:14.045Z,98036.99
2018-09-09T06:57:44.229Z,98035.44
2018-09-09T07:02:46.728Z,98031.33
2018-09-09T07:05:16.840Z,98036.52
2018-09-09T07:07:48.241Z,98029.91
2018-09-09T07:10:16.329Z,98041.39
2018-09-09T07:12:43.872Z,98037.11
2018-09-09T07:15:14.127Z,98038.74
2018-09-09T07:17:41.009Z,98044.14
2018-09-09T07:20:08.205Z,98041.23
2018-09-09T07:25:17.447Z,98044.30
2018-09-09T07:27:45.415Z,98047.16
2018-09-09T07:30:16.424Z,98046.62
2018-09-09T07:32:48.870Z,98043.52
2018-09-09T07:35:15.706Z,98045.08
2018-09-09T07:37:44.698Z,98037.30
2018-09-09T07:40:12.936Z,98034.02
2018-09-09T07:45:19.025Z,98041.89
2018-09-09T07:58:08.664Z,98037.51
2018-09-09T08:08:24.091Z,98040.66
2018-09-09T08:10:53.210Z,98044.11
2018-09-09T08:15:59.136Z,98043.66
2018-09-09T08:23:42.915Z,98043.19
2018-09-09T08:26:12.592Z,98038.70
2018-09-09T08:33:55.205Z,98031.55
2018-09-09T08:36:25.307Z,98035.63
2018-09-09T08:46:38.072Z,98032.41
2018-09-09T08:49:06.858Z,98028.63
2018-09-09T08:56:55.509Z,98029.95
2018-09-09T08:59:25.463Z,98029.13
2018-09-09T09:01:59.833Z,98031.03
2018-09-09T09:04:30.690Z,98032.67
2018-09-09T09:06:58.927Z,98030.26
2018-09-09T09:12:03.781Z,98028.05
2018-09-09T09:17:07.098Z,98017.98
2018-09-09T09:19:42.802Z,98010.38
2018-09-09T09:29:54.536Z,98014.48
2018-09-09T09:35:11.579Z,98011.95
2018-09-09T09:37:38.946Z,98016.34
2018-09-09T09:40:11.489Z,98013.38
2018-09-09T09:42:40.190Z,98004.28
2018-09-09T09:45:12.650Z,97999.30
2018-09-09T09:47:44.757Z,98001.16
2018-09-09T09:50:15.820Z,98001.13
2018-09-09T09:52:43.458Z,98005.07
2018-09-09T09:55:16.255Z,98005.20
2018-09-09T09:57:44.245Z,98003.28
2018-09-09T10:00:11.676Z,98000.73
2018-09-09T10:02:38.721Z,97998.90
2018-09-09T10:05:14.089Z,98001.86
2018-09-09T10:07:42.205Z,97997.13
2018-09-09T10:10:12.423Z,97997.95
2018-09-09T10:12:41.237Z,97993.91
2018-09-09T10:15:14.255Z,97993.02
2018-09-09T10:17:44.278Z,97989.62
2018-09-09T10:20:14.299Z,97995.45
2018-09-09T10:27:59.863Z,97989.13
2018-09-09T10:33:03.703Z,97991.23
2018-09-09T10:38:15.438Z,97990.03
2018-09-09T10:51:05.968Z,97982.28
2018-09-09T10:56:10.449Z,97979.19
2018-09-09T10:58:40.782Z,97976.05
2018-09-09T11:01:08.185Z,97970.69
2018-09-09T11:03:35.288Z,97977.78
2018-09-09T11:06:07.831Z,97971.66
2018-09-09T11:08:35.169Z,97969.41
2018-09-09T11:11:05.051Z,97973.84
2018-09-09T11:16:07.321Z,97976.73
2018-09-09T11:18:37.048Z,97968.88
2018-09-09T11:28:53.258Z,97956.97
2018-09-09T11:31:23.706Z,97955.94
2018-09-09T11:33:53.034Z,97957.86
2018-09-09T11:38:56.401Z,97956.89
2018-09-09T11:46:37.305Z,97947.84
2018-09-09T11:49:04.668Z,97948.22
2018-09-09T11:51:32.809Z,97946.35
2018-09-09T11:54:02.452Z,97943.77
2018-09-09T11:56:29.307Z,97942.36
2018-09-09T11:58:56.095Z,97945.41
2018-09-09T12:01:26.735Z,97945.67
2018-09-09T12:06:38.631Z,97932.96
2018-09-09T12:09:06.813Z,97928.09
2018-09-09T12:14:10.073Z,97916.04
2018-09-09T12:16:36.718Z,97919.86
2018-09-09T12:24:11.356Z,97913.84
2018-09-09T12:32:07.496Z,97922.26
2018-09-09T12:34:38.385Z,97923.47
2018-09-09T12:37:08.903Z,97922.76
2018-09-09T12:39:41.917Z,97913.42
2018-09-09T12:47:22.737Z,97900.30
2018-09-09T12:55:05.419Z,97898.83
2018-09-09T13:00:07.174Z,97897.92
2018-09-09T13:07:53.653Z,97899.91
2018-09-09T13:12:57.020Z,97892.11
2018-09-09T13:15:25.115Z,97891.84
2018-09-09T13:18:00.261Z,97887.37
2018-09-09T13:20:31.545Z,97890.41
2018-09-09T13:25:36.111Z,97880.98
2018-09-09T13:30:35.030Z,97882.92
2018-09-09T13:35:38.323Z,97889.31
2018-09-09T13:43:32.601Z,97883.18
2018-09-09T13:46:00.821Z,97882.47
2018-09-09T13:48:30.852Z,97883.26
2018-09-09T13:51:01.196Z,97875.31
2018-09-09T13:56:01.806Z,97885.38
2018-09-09T13:58:41.421Z,97879.97
2018-09-09T14:03:41.951Z,97878.49
2018-09-09T14:06:10.079Z,97877.31
2018-09-09T14:08:38.469Z,97880.30
2018-09-09T14:11:06.328Z,97881.20
2018-09-09T14:13:34.421Z,97879.27
2018-09-09T14:16:03.757Z,97880.99
2018-09-09T14:18:31.152Z,97881.39
2018-09-09T14:20:58.628Z,97877.04
2018-09-09T14:23:26.760Z,97884.98
2018-09-09T14:25:54.356Z,97882.24
2018-09-09T14:28:23.588Z,97887.86
2018-09-09T14:30:52.163Z,97881.05
2018-09-09T14:33:20.387Z,97878.56
2018-09-09T14:35:48.628Z,97884.55
2018-09-09T14:38:16.815Z,97884.44
2018-09-09T14:43:17.794Z,97883.03
2018-09-09T14:45:46.762Z,97881.86
2018-09-09T14:48:16.746Z,97880.89
2018-09-09T14:50:46.712Z,97882.79
2018-09-09T14:53:15.788Z,97882.56
2018-09-09T14:55:43.975Z,97879.38
2018-09-09T14:58:11.817Z,97883.98
2018-09-09T15:00:39.906Z,97884.95
2018-09-09T15:03:09.235Z,97878.08
2018-09-09T15:05:37.798Z,97887.96
2018-09-09T15:08:05.824Z,97882.07
2018-09-09T15:10:33.481Z,97882.18
2018-09-09T15:13:01.064Z,97881.03
2018-09-09T15:15:29.061Z,97877.02
2018-09-09T15:17:56.992Z,97879.21
2018-09-09T15:20:25.062Z,97869.60
2018-09-09T15:22:53.135Z,97865.64
2018-09-09T15:25:20.330Z,97873.41
2018-09-09T15:27:49.219Z,97876.92
2018-09-09T15:30:17.240Z,97877.99
2018-09-09T15:32:45.145Z,97883.18
2018-09-09T15:35:14.089Z,97878.95
2018-09-09T15:37:41.865Z,97878.69
2018-09-09T15:40:11.838Z,97876.86
2018-09-09T15:42:40.652Z,97879.30
2018-09-09T15:45:08.803Z,97887.27
2018-09-09T15:47:36.807Z,97889.31
2018-09-09T15:50:04.525Z,97894.56
2018-09-09T15:52:31.971Z,97889.56
2018-09-09T15:55:00.414Z,97891.84
2018-09-09T15:57:27.743Z,97893.50
2018-09-09T15:59:56.005Z,97894.30
2018-09-09T16:02:24.562Z,97897.39
2018-09-09T16:04:51.918Z,97896.95
2018-09-09T16:07:19.847Z,97896.27
2018-09-09T16:09:48.520Z,97901.12
2018-09-09T16:12:18.380Z,97898.97
2018-09-09T16:14:46.113Z,97898.72
2018-09-09T16:17:13.739Z,97908.56
2018-09-09T16:19:41.821Z,97907.69
2018-09-09T16:22:09.745Z,97905.36
2018-09-09T16:24:38.220Z,97912.73
2018-09-09T16:27:07.590Z,97911.01
2018-09-09T16:29:35.854Z,97905.24
2018-09-09T16:32:03.929Z,97906.80
2018-09-09T16:34:32.910Z,97905.80
2018-09-09T16:37:03.900Z,97902.73
2018-09-09T16:44:36.047Z,97914.92
2018-09-09T16:47:04.359Z,97918.88
2018-09-09T16:49:33.640Z,97919.34
2018-09-09T16:52:02.108Z,97923.72
2018-09-09T16:54:30.674Z,97926.47
2018-09-09T16:56:59.137Z,97925.70
2018-09-09T16:59:27.471Z,97933.80
2018-09-09T17:01:55.835Z,97930.94
2018-09-09T17:04:25.878Z,97932.69
2018-09-09T17:06:55.809Z,97930.94
2018-09-09T17:09:25.610Z,97935.55
2018-09-09T17:11:53.732Z,97940.97
2018-09-09T17:14:21.580Z,97937.42
2018-09-09T17:16:49.305Z,97935.87
2018-09-09T17:19:17.916Z,97947.56
2018-09-09T17:21:45.313Z,97945.16
2018-09-09T17:24:13.133Z,97951.75
2018-09-09T17:26:42.184Z,97955.15
2018-09-09T17:29:10.274Z,97956.82
2018-09-09T17:31:38.745Z,97953.08
2018-09-09T17:34:06.847Z,97960.94
2018-09-09T17:36:35.390Z,97966.31
2018-09-09T17:39:03.560Z,97967.41
2018-09-09T17:41:31.873Z,97970.61
2018-09-09T17:44:00.810Z,97968.20
2018-09-09T17:46:28.798Z,97973.90
2018-09-09T17:48:55.710Z,97979.05
2018-09-09T17:51:22.678Z,97980.14
2018-09-09T17:53:49.703Z,97973.09
2018-09-09T17:56:17.453Z,97980.94
2018-09-09T17:58:44.266Z,97977.41
2018-09-09T18:01:11.153Z,97986.04
2018-09-09T18:03:38.012Z,97983.66
2018-09-09T18:06:04.879Z,97985.78
2018-09-09T18:08:31.762Z,97983.59
2018-09-09T18:10:58.998Z,97986.81
2018-09-09T18:13:25.971Z,97991.16
2018-09-09T18:15:52.997Z,97993.59
2018-09-09T18:18:20.551Z,97993.60
2018-09-09T18:20:47.605Z,97994.94
2018-09-09T18:23:14.623Z,97997.13
2018-09-09T18:25:42.340Z,98003.05
2018-09-09T18:28:09.445Z,98007.10
2018-09-09T18:30:37.438Z,98010.56
2018-09-09T18:33:04.388Z,98013.23
2018-09-09T18:35:31.569Z,98011.27
2018-09-09T18:37:58.359Z,98016.09
2018-09-09T18:40:25.211Z,98015.38
2018-09-09T18:42:52.070Z,98016.64
2018-09-09T18:47:53.444Z,98017.80
2018-09-09T18:50:20.710Z,98021.47
2018-09-09T18:52:48.819Z,98023.76
2018-09-09T18:55:16.422Z,98023.22
2018-09-09T18:57:43.874Z,98030.56
2018-09-09T19:00:11.109Z,98026.37
2018-09-09T19:02:38.048Z,98030.30
2018-09-09T19:05:04.885Z,98035.95
2018-09-09T19:07:31.697Z,98034.61
2018-09-09T19:09:58.904Z,98034.95
2018-09-09T19:12:27.722Z,98037.56
2018-09-09T19:14:55.476Z,98034.05
2018-09-09T19:17:23.105Z,98034.98
2018-09-09T19:19:53.098Z,98030.62
2018-09-09T19:22:19.922Z,98031.81
2018-09-09T19:24:46.713Z,98031.91
2018-09-09T19:27:13.477Z,98030.52
2018-09-09T19:29:40.893Z,98037.84
2018-09-09T19:32:08.524Z,98039.20
2018-09-09T19:34:36.744Z,98039.38
2018-09-09T19:37:03.603Z,98043.23
2018-09-09T19:39:30.516Z,98038.67
2018-09-09T19:41:57.397Z,98039.78
2018-09-09T19:44:24.460Z,98051.19
2018-09-09T19:46:51.218Z,98052.95
2018-09-09T19:49:17.989Z,98053.49
2018-09-09T19:51:45.021Z,98054.06
2018-09-09T19:54:11.848Z,98057.36
2018-09-09T19:56:38.601Z,98059.19
2018-09-09T19:59:05.386Z,98070.31
2018-09-09T20:01:32.230Z,98066.77
2018-09-09T20:03:59.610Z,98061.16
2018-09-09T20:06:26.506Z,98062.71
2018-09-09T20:08:53.443Z,98060.41
2018-09-09T20:11:22.505Z,98061.09
2018-09-09T20:13:49.300Z,98060.53
2018-09-09T20:16:16.117Z,98060.17
2018-09-09T20:18:42.952Z,98063.58
2018-09-09T20:21:10.357Z,98063.09
2018-09-09T20:23:37.280Z,98061.11
2018-09-09T20:26:05.004Z,98067.05
2018-09-09T20:28:33.148Z,98066.88
2018-09-09T20:31:00.201Z,98062.45
2018-09-09T20:33:28.011Z,98070.13
2018-09-09T20:35:54.897Z,98069.15
2018-09-09T20:38:21.697Z,98076.92
2018-09-09T20:40:48.480Z,98078.64
2018-09-09T20:43:15.264Z,98075.35
2018-09-09T20:45:42.064Z,98082.75
2018-09-09T20:48:10.084Z,98089.73
2018-09-09T20:50:36.883Z,98088.86
2018-09-09T20:53:03.646Z,98085.66
2018-09-09T20:55:30.490Z,98091.19
2018-09-09T20:57:57.320Z,98088.23
2018-09-09T21:00:24.200Z,98087.80
2018-09-09T21:02:51.126Z,98093.85
2018-09-09T21:05:17.964Z,98094.66
2018-09-09T21:07:45.199Z,98091.45
2018-09-09T21:10:13.004Z,98096.89
2018-09-09T21:12:40.860Z,98094.83
2018-09-09T21:15:07.960Z,98102.38
2018-09-09T21:17:34.982Z,98096.46
2018-09-09T21:20:01.894Z,98094.38
2018-09-09T21:22:28.737Z,98099.52
2018-09-09T21:24:55.545Z,98100.75
2018-09-09T21:27:23.257Z,98098.66
2018-09-09T21:29:50.282Z,98097.53
2018-09-09T21:32:17.255Z,98102.67
2018-09-09T21:34:44.133Z,98104.56
2018-09-09T21:37:11.992Z,98100.06
2018-09-09T21:39:38.901Z,98104.86
2018-09-09T21:42:05.745Z,98096.66
2018-09-09T21:44:32.613Z,98095.20
2018-09-09T21:47:00.193Z,98097.19
2018-09-09T21:49:27.011Z,98094.01
2018-09-09T21:51:53.824Z,98098.73
2018-09-09T21:54:20.648Z,98093.76
2018-09-09T21:56:47.542Z,98096.00
2018-09-09T21:59:14.346Z,98087.44
2018-09-09T22:01:41.397Z,98092.02
2018-09-09T22:04:08.236Z,98092.11
2018-09-09T22:06:35.921Z,98092.70
2018-09-09T22:09:02.918Z,98101.35
2018-09-09T22:11:29.781Z,98095.36
2018-09-09T22:13:56.549Z,98094.84
2018-09-09T22:16:23.366Z,98103.41
2018-09-09T22:18:50.577Z,98106.95
2018-09-09T22:21:17.537Z,98098.66
2018-09-09T22:23:44.367Z,98094.98
2018-09-09T22:26:12.701Z,98095.16
2018-09-09T22:28:40.284Z,98095.37
2018-09-09T22:31:09.072Z,98092.66
2018-09-09T22:33:35.821Z,98096.55
2018-09-09T22:36:02.599Z,98097.48
2018-09-09T22:38:29.579Z,98101.61
2018-09-09T22:40:56.380Z,98101.20
2018-09-09T22:43:23.304Z,98098.19
2018-09-09T22:45:50.358Z,98100.00
2018-09-09T22:48:17.545Z,98106.36
2018-09-09T22:50:44.855Z,98102.35
2018-09-09T22:53:11.551Z,98103.41
2018-09-09T22:55:38.322Z,98095.92
2018-09-09T22:58:05.196Z,98097.80
2018-09-09T23:00:31.959Z,98095.87
2018-09-09T23:02:58.723Z,98096.52
2018-09-09T23:05:25.501Z,98094.87
2018-09-09T23:07:52.456Z,98098.54
2018-09-09T23:10:19.558Z,98093.60
2018-09-09T23:12:46.359Z,98093.41
2018-09-09T23:15:13.077Z,98098.20
2018-09-09T23:17:39.933Z,98093.30
2018-09-09T23:20:06.682Z,98096.00
2018-09-09T23:22:33.436Z,98092.39
2018-09-09T23:25:00.240Z,98093.00
2018-09-09T23:27:27.029Z,98089.80
2018-09-09T23:29:53.953Z,98093.11
2018-09-09T23:32:20.696Z,98096.33
2018-09-09T23:34:47.513Z,98101.45
2018-09-09T23:37:14.245Z,98097.05
2018-09-09T23:39:41.277Z,98098.63
2018-09-09T23:42:08.178Z,98098.11
2018-09-09T23:44:35.266Z,98091.86
2018-09-09T23:47:02.265Z,98090.09
2018-09-09T23:49:29.218Z,98097.37
2018-09-09T23:51:55.974Z,98093.33
2018-09-09T23:54:23.647Z,98089.33
2018-09-09T23:56:50.563Z,98088.66
2018-09-09T23:59:18.251Z,98083.64
